sensor_id;sensor_type;location;lat;lon;timestamp;P1;durP1;ratioP1;P2;durP2;ratioP2
21777;SDS011;11050;52.222;20.916;2023-07-31T00:00:30;3.22;;;2.33;;
21777;SDS011;11050;52.222;20.916;2023-07-31T00:02:55;2.72;;;2.40;;
21777;SDS011;11050;52.222;20.916;2023-07-31T00:05:21;3.60;;;2.65;;
21777;SDS011;11050;52.222;20.916;2023-07-31T00:07:47;4.45;;;2.72;;
21777;SDS011;11050;52.222;20.916;2023-07-31T00:10:13;2.75;;;2.50;;
21777;SDS011;11050;52.222;20.916;2023-07-31T00:12:39;5.82;;;2.40;;
21777;SDS011;11050;52.222;20.916;2023-07-31T00:15:08;3.55;;;2.50;;
21777;SDS011;11050;52.222;20.916;2023-07-31T00:17:35;2.40;;;2.20;;
21777;SDS011;11050;52.222;20.916;2023-07-31T00:20:02;2.83;;;2.45;;
21777;SDS011;11050;52.222;20.916;2023-07-31T00:22:28;3.15;;;2.30;;
21777;SDS011;11050;52.222;20.916;2023-07-31T00:24:55;2.63;;;2.20;;
21777;SDS011;11050;52.222;20.916;2023-07-31T00:27:22;2.83;;;2.40;;
21777;SDS011;11050;52.222;20.916;2023-07-31T00:29:47;2.42;;;2.22;;
21777;SDS011;11050;52.222;20.916;2023-07-31T00:32:13;2.40;;;2.20;;
21777;SDS011;11050;52.222;20.916;2023-07-31T00:34:39;2.45;;;2.25;;
21777;SDS011;11050;52.222;20.916;2023-07-31T00:37:05;3.13;;;2.53;;
21777;SDS011;11050;52.222;20.916;2023-07-31T00:39:33;4.03;;;2.33;;
21777;SDS011;11050;52.222;20.916;2023-07-31T00:42:00;2.33;;;2.13;;
21777;SDS011;11050;52.222;20.916;2023-07-31T00:44:26;2.47;;;1.88;;
21777;SDS011;11050;52.222;20.916;2023-07-31T00:46:52;3.63;;;2.55;;
21777;SDS011;11050;52.222;20.916;2023-07-31T00:49:18;2.85;;;2.38;;
21777;SDS011;11050;52.222;20.916;2023-07-31T00:51:47;2.45;;;2.25;;
21777;SDS011;11050;52.222;20.916;2023-07-31T00:54:12;3.20;;;2.35;;
21777;SDS011;11050;52.222;20.916;2023-07-31T00:56:38;3.88;;;2.47;;
21777;SDS011;11050;52.222;20.916;2023-07-31T00:59:07;4.32;;;2.58;;
21777;SDS011;11050;52.222;20.916;2023-07-31T01:01:33;4.03;;;2.60;;
21777;SDS011;11050;52.222;20.916;2023-07-31T01:03:59;5.80;;;2.55;;
21777;SDS011;11050;52.222;20.916;2023-07-31T01:06:32;3.20;;;2.60;;
21777;SDS011;11050;52.222;20.916;2023-07-31T01:09:29;3.15;;;2.33;;
21777;SDS011;11050;52.222;20.916;2023-07-31T01:12:12;3.25;;;2.65;;
21777;SDS011;11050;52.222;20.916;2023-07-31T01:14:50;3.08;;;2.55;;
21777;SDS011;11050;52.222;20.916;2023-07-31T01:17:26;5.07;;;2.83;;
21777;SDS011;11050;52.222;20.916;2023-07-31T01:19:53;3.42;;;2.70;;
21777;SDS011;11050;52.222;20.916;2023-07-31T01:28:13;4.35;;;2.70;;
21777;SDS011;11050;52.222;20.916;2023-07-31T01:30:49;3.72;;;2.97;;
21777;SDS011;11050;52.222;20.916;2023-07-31T01:33:16;3.50;;;2.95;;
21777;SDS011;11050;52.222;20.916;2023-07-31T01:35:43;3.83;;;2.75;;
21777;SDS011;11050;52.222;20.916;2023-07-31T01:38:11;3.47;;;2.70;;
21777;SDS011;11050;52.222;20.916;2023-07-31T01:40:37;4.25;;;3.15;;
21777;SDS011;11050;52.222;20.916;2023-07-31T01:43:06;10.13;;;3.17;;
21777;SDS011;11050;52.222;20.916;2023-07-31T01:45:32;4.72;;;3.05;;
21777;SDS011;11050;52.222;20.916;2023-07-31T01:47:58;6.18;;;3.20;;
21777;SDS011;11050;52.222;20.916;2023-07-31T01:50:24;3.65;;;3.10;;
21777;SDS011;11050;52.222;20.916;2023-07-31T01:52:49;4.30;;;3.10;;
21777;SDS011;11050;52.222;20.916;2023-07-31T01:55:15;3.63;;;3.10;;
21777;SDS011;11050;52.222;20.916;2023-07-31T01:57:41;4.90;;;3.47;;
21777;SDS011;11050;52.222;20.916;2023-07-31T02:00:07;5.22;;;2.72;;
21777;SDS011;11050;52.222;20.916;2023-07-31T02:02:33;4.30;;;3.28;;
21777;SDS011;11050;52.222;20.916;2023-07-31T02:04:58;4.65;;;3.20;;
21777;SDS011;11050;52.222;20.916;2023-07-31T02:07:24;4.00;;;3.25;;
21777;SDS011;11050;52.222;20.916;2023-07-31T02:09:50;5.55;;;3.58;;
21777;SDS011;11050;52.222;20.916;2023-07-31T02:12:15;3.55;;;3.13;;
21777;SDS011;11050;52.222;20.916;2023-07-31T02:14:42;4.15;;;3.22;;
21777;SDS011;11050;52.222;20.916;2023-07-31T02:17:07;4.65;;;3.78;;
21777;SDS011;11050;52.222;20.916;2023-07-31T02:19:33;4.70;;;3.67;;
21777;SDS011;11050;52.222;20.916;2023-07-31T02:21:59;4.95;;;3.45;;
21777;SDS011;11050;52.222;20.916;2023-07-31T02:24:24;4.93;;;3.90;;
21777;SDS011;11050;52.222;20.916;2023-07-31T02:26:50;6.70;;;3.75;;
21777;SDS011;11050;52.222;20.916;2023-07-31T02:29:16;6.30;;;3.90;;
21777;SDS011;11050;52.222;20.916;2023-07-31T02:31:42;5.00;;;3.47;;
21777;SDS011;11050;52.222;20.916;2023-07-31T02:34:07;5.13;;;3.40;;
21777;SDS011;11050;52.222;20.916;2023-07-31T02:36:33;7.97;;;4.10;;
21777;SDS011;11050;52.222;20.916;2023-07-31T02:38:59;6.43;;;3.90;;
21777;SDS011;11050;52.222;20.916;2023-07-31T02:41:24;4.28;;;3.70;;
21777;SDS011;11050;52.222;20.916;2023-07-31T02:43:50;6.53;;;3.85;;
21777;SDS011;11050;52.222;20.916;2023-07-31T02:46:16;4.50;;;3.97;;
21777;SDS011;11050;52.222;20.916;2023-07-31T02:48:42;7.72;;;4.07;;
21777;SDS011;11050;52.222;20.916;2023-07-31T02:51:08;7.07;;;4.60;;
21777;SDS011;11050;52.222;20.916;2023-07-31T02:53:33;5.57;;;4.20;;
21777;SDS011;11050;52.222;20.916;2023-07-31T02:55:59;6.18;;;4.60;;
21777;SDS011;11050;52.222;20.916;2023-07-31T02:58:25;5.55;;;4.18;;
21777;SDS011;11050;52.222;20.916;2023-07-31T03:00:51;4.05;;;3.70;;
21777;SDS011;11050;52.222;20.916;2023-07-31T03:03:16;5.32;;;4.00;;
21777;SDS011;11050;52.222;20.916;2023-07-31T03:05:42;6.00;;;4.07;;
21777;SDS011;11050;52.222;20.916;2023-07-31T03:08:08;9.73;;;4.03;;
21777;SDS011;11050;52.222;20.916;2023-07-31T03:10:33;6.75;;;4.28;;
21777;SDS011;11050;52.222;20.916;2023-07-31T03:12:59;6.93;;;4.03;;
21777;SDS011;11050;52.222;20.916;2023-07-31T03:15:25;5.75;;;4.10;;
21777;SDS011;11050;52.222;20.916;2023-07-31T03:17:50;5.07;;;3.92;;
21777;SDS011;11050;52.222;20.916;2023-07-31T03:20:16;6.65;;;4.53;;
21777;SDS011;11050;52.222;20.916;2023-07-31T03:22:42;6.28;;;4.45;;
21777;SDS011;11050;52.222;20.916;2023-07-31T03:25:08;5.43;;;4.50;;
21777;SDS011;11050;52.222;20.916;2023-07-31T03:27:35;4.78;;;4.13;;
21777;SDS011;11050;52.222;20.916;2023-07-31T03:30:01;8.18;;;4.28;;
21777;SDS011;11050;52.222;20.916;2023-07-31T03:32:28;9.05;;;3.65;;
21777;SDS011;11050;52.222;20.916;2023-07-31T03:34:54;9.30;;;4.30;;
21777;SDS011;11050;52.222;20.916;2023-07-31T03:37:19;5.30;;;3.80;;
21777;SDS011;11050;52.222;20.916;2023-07-31T03:39:45;6.35;;;3.97;;
21777;SDS011;11050;52.222;20.916;2023-07-31T03:42:11;5.65;;;4.22;;
21777;SDS011;11050;52.222;20.916;2023-07-31T03:44:36;6.50;;;4.07;;
21777;SDS011;11050;52.222;20.916;2023-07-31T03:47:02;5.13;;;3.75;;
21777;SDS011;11050;52.222;20.916;2023-07-31T03:49:28;5.47;;;3.70;;
21777;SDS011;11050;52.222;20.916;2023-07-31T03:51:54;5.00;;;3.53;;
21777;SDS011;11050;52.222;20.916;2023-07-31T03:54:20;9.18;;;4.30;;
21777;SDS011;11050;52.222;20.916;2023-07-31T03:56:45;6.65;;;3.75;;
21777;SDS011;11050;52.222;20.916;2023-07-31T03:59:11;6.18;;;3.83;;
21777;SDS011;11050;52.222;20.916;2023-07-31T04:01:37;5.40;;;3.80;;
21777;SDS011;11050;52.222;20.916;2023-07-31T04:04:03;5.90;;;4.30;;
21777;SDS011;11050;52.222;20.916;2023-07-31T04:06:29;6.57;;;3.67;;
21777;SDS011;11050;52.222;20.916;2023-07-31T04:08:54;4.32;;;3.58;;
21777;SDS011;11050;52.222;20.916;2023-07-31T04:11:20;5.88;;;4.32;;
21777;SDS011;11050;52.222;20.916;2023-07-31T04:13:46;11.73;;;3.70;;
21777;SDS011;11050;52.222;20.916;2023-07-31T04:16:11;3.90;;;3.53;;
21777;SDS011;11050;52.222;20.916;2023-07-31T04:18:37;6.00;;;3.90;;
21777;SDS011;11050;52.222;20.916;2023-07-31T04:21:03;4.47;;;3.70;;
21777;SDS011;11050;52.222;20.916;2023-07-31T04:23:29;5.43;;;3.70;;
21777;SDS011;11050;52.222;20.916;2023-07-31T04:25:55;5.15;;;3.80;;
21777;SDS011;11050;52.222;20.916;2023-07-31T04:28:21;7.97;;;4.22;;
21777;SDS011;11050;52.222;20.916;2023-07-31T04:30:47;7.10;;;4.22;;
21777;SDS011;11050;52.222;20.916;2023-07-31T04:33:12;5.07;;;3.97;;
21777;SDS011;11050;52.222;20.916;2023-07-31T04:35:38;5.20;;;3.92;;
21777;SDS011;11050;52.222;20.916;2023-07-31T04:38:04;4.75;;;3.70;;
21777;SDS011;11050;52.222;20.916;2023-07-31T04:40:30;7.85;;;4.18;;
21777;SDS011;11050;52.222;20.916;2023-07-31T04:42:55;5.60;;;3.97;;
21777;SDS011;11050;52.222;20.916;2023-07-31T04:45:21;5.00;;;3.97;;
21777;SDS011;11050;52.222;20.916;2023-07-31T04:47:47;5.97;;;4.07;;
21777;SDS011;11050;52.222;20.916;2023-07-31T04:50:12;7.78;;;4.10;;
21777;SDS011;11050;52.222;20.916;2023-07-31T04:52:38;6.45;;;4.40;;
21777;SDS011;11050;52.222;20.916;2023-07-31T04:55:04;5.85;;;3.67;;
21777;SDS011;11050;52.222;20.916;2023-07-31T04:57:30;5.55;;;3.50;;
21777;SDS011;11050;52.222;20.916;2023-07-31T04:59:56;6.47;;;3.72;;
21777;SDS011;11050;52.222;20.916;2023-07-31T05:02:21;4.53;;;3.75;;
21777;SDS011;11050;52.222;20.916;2023-07-31T05:04:47;5.40;;;3.33;;
21777;SDS011;11050;52.222;20.916;2023-07-31T05:07:13;6.90;;;3.63;;
21777;SDS011;11050;52.222;20.916;2023-07-31T05:09:38;5.60;;;3.50;;
21777;SDS011;11050;52.222;20.916;2023-07-31T05:12:04;8.52;;;4.03;;
21777;SDS011;11050;52.222;20.916;2023-07-31T05:14:31;5.43;;;3.70;;
21777;SDS011;11050;52.222;20.916;2023-07-31T05:16:56;5.40;;;3.22;;
21777;SDS011;11050;52.222;20.916;2023-07-31T05:19:22;5.82;;;3.80;;
21777;SDS011;11050;52.222;20.916;2023-07-31T05:21:48;3.88;;;3.10;;
21777;SDS011;11050;52.222;20.916;2023-07-31T05:24:13;4.40;;;3.22;;
21777;SDS011;11050;52.222;20.916;2023-07-31T05:26:39;4.05;;;3.10;;
21777;SDS011;11050;52.222;20.916;2023-07-31T05:29:05;3.85;;;3.17;;
21777;SDS011;11050;52.222;20.916;2023-07-31T05:31:30;5.90;;;3.20;;
21777;SDS011;11050;52.222;20.916;2023-07-31T05:33:57;5.03;;;3.28;;
21777;SDS011;11050;52.222;20.916;2023-07-31T05:36:23;6.88;;;3.58;;
21777;SDS011;11050;52.222;20.916;2023-07-31T05:38:49;4.90;;;3.03;;
21777;SDS011;11050;52.222;20.916;2023-07-31T05:41:14;7.82;;;3.15;;
21777;SDS011;11050;52.222;20.916;2023-07-31T05:43:41;5.00;;;3.00;;
21777;SDS011;11050;52.222;20.916;2023-07-31T05:46:08;4.47;;;3.17;;
21777;SDS011;11050;52.222;20.916;2023-07-31T05:48:34;3.42;;;2.78;;
21777;SDS011;11050;52.222;20.916;2023-07-31T05:51:00;6.25;;;3.53;;
21777;SDS011;11050;52.222;20.916;2023-07-31T05:53:26;4.35;;;3.10;;
21777;SDS011;11050;52.222;20.916;2023-07-31T05:55:51;6.28;;;3.40;;
21777;SDS011;11050;52.222;20.916;2023-07-31T05:58:17;4.88;;;3.30;;
21777;SDS011;11050;52.222;20.916;2023-07-31T06:00:43;6.45;;;3.22;;
21777;SDS011;11050;52.222;20.916;2023-07-31T06:03:08;7.43;;;3.25;;
21777;SDS011;11050;52.222;20.916;2023-07-31T06:05:34;4.82;;;3.17;;
21777;SDS011;11050;52.222;20.916;2023-07-31T06:08:00;5.43;;;3.65;;
21777;SDS011;11050;52.222;20.916;2023-07-31T06:10:26;5.63;;;2.85;;
21777;SDS011;11050;52.222;20.916;2023-07-31T06:12:53;5.38;;;4.00;;
21777;SDS011;11050;52.222;20.916;2023-07-31T06:15:19;4.93;;;3.15;;
21777;SDS011;11050;52.222;20.916;2023-07-31T06:17:45;4.30;;;3.30;;
21777;SDS011;11050;52.222;20.916;2023-07-31T06:20:11;8.35;;;3.92;;
21777;SDS011;11050;52.222;20.916;2023-07-31T06:22:37;6.18;;;3.67;;
21777;SDS011;11050;52.222;20.916;2023-07-31T06:25:02;4.40;;;3.25;;
21777;SDS011;11050;52.222;20.916;2023-07-31T06:27:28;5.72;;;3.88;;
21777;SDS011;11050;52.222;20.916;2023-07-31T06:29:54;5.00;;;3.70;;
21777;SDS011;11050;52.222;20.916;2023-07-31T06:32:20;4.88;;;3.53;;
21777;SDS011;11050;52.222;20.916;2023-07-31T06:34:46;6.28;;;4.35;;
21777;SDS011;11050;52.222;20.916;2023-07-31T06:37:11;7.03;;;4.03;;
21777;SDS011;11050;52.222;20.916;2023-07-31T06:39:37;6.00;;;4.13;;
21777;SDS011;11050;52.222;20.916;2023-07-31T06:42:03;7.07;;;3.80;;
21777;SDS011;11050;52.222;20.916;2023-07-31T06:44:29;7.15;;;4.35;;
21777;SDS011;11050;52.222;20.916;2023-07-31T06:46:55;4.43;;;3.40;;
21777;SDS011;11050;52.222;20.916;2023-07-31T06:49:21;5.93;;;3.70;;
21777;SDS011;11050;52.222;20.916;2023-07-31T06:51:46;5.72;;;4.05;;
21777;SDS011;11050;52.222;20.916;2023-07-31T06:54:12;7.03;;;3.78;;
21777;SDS011;11050;52.222;20.916;2023-07-31T06:56:38;5.88;;;3.83;;
21777;SDS011;11050;52.222;20.916;2023-07-31T06:59:03;4.80;;;3.70;;
21777;SDS011;11050;52.222;20.916;2023-07-31T07:01:29;7.32;;;4.05;;
21777;SDS011;11050;52.222;20.916;2023-07-31T07:03:55;5.13;;;3.50;;
21777;SDS011;11050;52.222;20.916;2023-07-31T07:06:21;7.22;;;3.45;;
21777;SDS011;11050;52.222;20.916;2023-07-31T07:08:48;6.55;;;3.83;;
21777;SDS011;11050;52.222;20.916;2023-07-31T07:11:14;5.65;;;3.80;;
21777;SDS011;11050;52.222;20.916;2023-07-31T07:13:39;5.22;;;4.03;;
21777;SDS011;11050;52.222;20.916;2023-07-31T07:16:05;6.97;;;3.58;;
21777;SDS011;11050;52.222;20.916;2023-07-31T07:18:31;4.95;;;3.10;;
21777;SDS011;11050;52.222;20.916;2023-07-31T07:20:57;4.93;;;3.78;;
21777;SDS011;11050;52.222;20.916;2023-07-31T07:23:23;6.32;;;4.03;;
21777;SDS011;11050;52.222;20.916;2023-07-31T07:25:49;4.07;;;3.35;;
21777;SDS011;11050;52.222;20.916;2023-07-31T07:28:16;7.18;;;3.70;;
21777;SDS011;11050;52.222;20.916;2023-07-31T07:30:42;7.78;;;3.47;;
21777;SDS011;11050;52.222;20.916;2023-07-31T07:33:07;6.80;;;3.45;;
21777;SDS011;11050;52.222;20.916;2023-07-31T07:35:33;7.00;;;3.70;;
21777;SDS011;11050;52.222;20.916;2023-07-31T07:38:01;5.75;;;3.50;;
21777;SDS011;11050;52.222;20.916;2023-07-31T07:40:27;6.75;;;3.60;;
21777;SDS011;11050;52.222;20.916;2023-07-31T07:42:53;7.35;;;3.42;;
21777;SDS011;11050;52.222;20.916;2023-07-31T07:45:19;4.00;;;3.35;;
21777;SDS011;11050;52.222;20.916;2023-07-31T07:47:45;6.38;;;3.45;;
21777;SDS011;11050;52.222;20.916;2023-07-31T07:50:11;6.60;;;3.10;;
21777;SDS011;11050;52.222;20.916;2023-07-31T07:52:36;6.72;;;3.70;;
21777;SDS011;11050;52.222;20.916;2023-07-31T07:55:03;5.10;;;3.22;;
21777;SDS011;11050;52.222;20.916;2023-07-31T07:57:29;5.53;;;3.38;;
21777;SDS011;11050;52.222;20.916;2023-07-31T07:59:55;4.95;;;3.55;;
21777;SDS011;11050;52.222;20.916;2023-07-31T08:02:21;5.50;;;3.05;;
21777;SDS011;11050;52.222;20.916;2023-07-31T08:04:47;5.10;;;3.53;;
21777;SDS011;11050;52.222;20.916;2023-07-31T08:07:13;4.97;;;3.03;;
21777;SDS011;11050;52.222;20.916;2023-07-31T08:09:39;4.72;;;3.00;;
21777;SDS011;11050;52.222;20.916;2023-07-31T08:12:06;6.70;;;3.33;;
21777;SDS011;11050;52.222;20.916;2023-07-31T08:14:32;6.07;;;3.28;;
21777;SDS011;11050;52.222;20.916;2023-07-31T08:16:58;5.80;;;3.15;;
21777;SDS011;11050;52.222;20.916;2023-07-31T08:19:24;7.15;;;3.88;;
21777;SDS011;11050;52.222;20.916;2023-07-31T08:21:49;6.90;;;3.17;;
21777;SDS011;11050;52.222;20.916;2023-07-31T08:24:15;6.43;;;3.28;;
21777;SDS011;11050;52.222;20.916;2023-07-31T08:26:41;5.65;;;3.05;;
21777;SDS011;11050;52.222;20.916;2023-07-31T08:29:07;10.25;;;3.00;;
21777;SDS011;11050;52.222;20.916;2023-07-31T08:31:33;4.80;;;3.35;;
21777;SDS011;11050;52.222;20.916;2023-07-31T08:33:59;3.58;;;2.65;;
21777;SDS011;11050;52.222;20.916;2023-07-31T08:36:25;5.10;;;3.38;;
21777;SDS011;11050;52.222;20.916;2023-07-31T08:38:51;5.65;;;2.97;;
21777;SDS011;11050;52.222;20.916;2023-07-31T08:41:17;7.78;;;3.10;;
21777;SDS011;11050;52.222;20.916;2023-07-31T08:43:43;5.72;;;3.17;;
21777;SDS011;11050;52.222;20.916;2023-07-31T08:46:11;5.70;;;3.22;;
21777;SDS011;11050;52.222;20.916;2023-07-31T08:48:39;7.28;;;3.28;;
21777;SDS011;11050;52.222;20.916;2023-07-31T08:51:08;4.10;;;3.10;;
21777;SDS011;11050;52.222;20.916;2023-07-31T08:53:34;5.60;;;2.88;;
21777;SDS011;11050;52.222;20.916;2023-07-31T08:56:00;5.57;;;3.08;;
21777;SDS011;11050;52.222;20.916;2023-07-31T08:58:27;6.95;;;2.90;;
21777;SDS011;11050;52.222;20.916;2023-07-31T09:00:57;7.07;;;3.10;;
21777;SDS011;11050;52.222;20.916;2023-07-31T09:03:28;7.68;;;2.55;;
21777;SDS011;11050;52.222;20.916;2023-07-31T09:05:58;5.95;;;2.70;;
21777;SDS011;11050;52.222;20.916;2023-07-31T09:08:25;5.13;;;2.63;;
21777;SDS011;11050;52.222;20.916;2023-07-31T09:10:58;8.32;;;2.63;;
21777;SDS011;11050;52.222;20.916;2023-07-31T09:13:29;5.32;;;2.50;;
21777;SDS011;11050;52.222;20.916;2023-07-31T09:15:56;3.42;;;2.53;;
21777;SDS011;11050;52.222;20.916;2023-07-31T09:18:22;4.70;;;2.30;;
21777;SDS011;11050;52.222;20.916;2023-07-31T09:21:06;4.18;;;2.65;;
21777;SDS011;11050;52.222;20.916;2023-07-31T09:26:32;3.83;;;2.83;;
21777;SDS011;11050;52.222;20.916;2023-07-31T09:29:01;4.55;;;2.97;;
21777;SDS011;11050;52.222;20.916;2023-07-31T09:31:40;4.20;;;2.35;;
21777;SDS011;11050;52.222;20.916;2023-07-31T09:34:08;4.65;;;2.30;;
21777;SDS011;11050;52.222;20.916;2023-07-31T09:36:42;3.97;;;2.47;;
21777;SDS011;11050;52.222;20.916;2023-07-31T09:39:14;5.57;;;2.80;;
21777;SDS011;11050;52.222;20.916;2023-07-31T09:41:42;4.60;;;2.85;;
21777;SDS011;11050;52.222;20.916;2023-07-31T09:44:12;6.57;;;2.90;;
21777;SDS011;11050;52.222;20.916;2023-07-31T09:46:38;7.90;;;2.42;;
21777;SDS011;11050;52.222;20.916;2023-07-31T09:49:10;3.67;;;2.22;;
21777;SDS011;11050;52.222;20.916;2023-07-31T09:51:39;3.72;;;1.80;;
21777;SDS011;11050;52.222;20.916;2023-07-31T09:56:45;3.17;;;2.30;;
21777;SDS011;11050;52.222;20.916;2023-07-31T09:59:14;3.10;;;2.33;;
21777;SDS011;11050;52.222;20.916;2023-07-31T10:01:46;3.15;;;2.28;;
21777;SDS011;11050;52.222;20.916;2023-07-31T10:04:13;5.70;;;2.40;;
21777;SDS011;11050;52.222;20.916;2023-07-31T10:06:40;5.50;;;2.47;;
21777;SDS011;11050;52.222;20.916;2023-07-31T10:09:09;4.68;;;2.33;;
21777;SDS011;11050;52.222;20.916;2023-07-31T10:11:40;4.82;;;2.00;;
21777;SDS011;11050;52.222;20.916;2023-07-31T10:14:15;3.40;;;2.05;;
21777;SDS011;11050;52.222;20.916;2023-07-31T10:16:45;2.15;;;1.90;;
21777;SDS011;11050;52.222;20.916;2023-07-31T10:19:12;3.63;;;1.90;;
21777;SDS011;11050;52.222;20.916;2023-07-31T10:21:38;6.47;;;2.47;;
21777;SDS011;11050;52.222;20.916;2023-07-31T10:24:06;3.65;;;1.80;;
21777;SDS011;11050;52.222;20.916;2023-07-31T10:26:34;7.57;;;2.30;;
21777;SDS011;11050;52.222;20.916;2023-07-31T10:29:04;3.08;;;1.98;;
21777;SDS011;11050;52.222;20.916;2023-07-31T10:31:31;5.90;;;2.20;;
21777;SDS011;11050;52.222;20.916;2023-07-31T10:33:59;6.68;;;2.30;;
21777;SDS011;11050;52.222;20.916;2023-07-31T10:36:28;3.20;;;1.75;;
21777;SDS011;11050;52.222;20.916;2023-07-31T10:38:55;4.47;;;1.90;;
21777;SDS011;11050;52.222;20.916;2023-07-31T10:41:28;4.43;;;1.88;;
21777;SDS011;11050;52.222;20.916;2023-07-31T10:44:01;6.32;;;1.75;;
21777;SDS011;11050;52.222;20.916;2023-07-31T10:46:32;2.63;;;1.50;;
21777;SDS011;11050;52.222;20.916;2023-07-31T10:48:58;3.47;;;1.52;;
21777;SDS011;11050;52.222;20.916;2023-07-31T10:51:33;3.50;;;1.75;;
21777;SDS011;11050;52.222;20.916;2023-07-31T10:54:10;3.85;;;1.50;;
21777;SDS011;11050;52.222;20.916;2023-07-31T10:56:38;4.43;;;2.00;;
21777;SDS011;11050;52.222;20.916;2023-07-31T10:59:04;4.15;;;2.00;;
21777;SDS011;11050;52.222;20.916;2023-07-31T11:04:23;2.33;;;1.60;;
21777;SDS011;11050;52.222;20.916;2023-07-31T11:06:58;4.95;;;1.52;;
21777;SDS011;11050;52.222;20.916;2023-07-31T11:09:30;3.10;;;1.40;;
21777;SDS011;11050;52.222;20.916;2023-07-31T11:12:01;3.15;;;1.17;;
21777;SDS011;11050;52.222;20.916;2023-07-31T11:14:27;3.65;;;1.40;;
21777;SDS011;11050;52.222;20.916;2023-07-31T11:16:52;2.25;;;1.23;;
21777;SDS011;11050;52.222;20.916;2023-07-31T11:19:22;3.00;;;1.55;;
21777;SDS011;11050;52.222;20.916;2023-07-31T11:21:49;1.48;;;1.20;;
21777;SDS011;11050;52.222;20.916;2023-07-31T11:24:16;2.92;;;1.35;;
21777;SDS011;11050;52.222;20.916;2023-07-31T11:26:49;2.40;;;1.20;;
21777;SDS011;11050;52.222;20.916;2023-07-31T11:29:18;6.07;;;1.67;;
21777;SDS011;11050;52.222;20.916;2023-07-31T11:31:46;5.53;;;1.48;;
21777;SDS011;11050;52.222;20.916;2023-07-31T11:34:13;3.78;;;1.40;;
21777;SDS011;11050;52.222;20.916;2023-07-31T11:36:40;4.25;;;1.60;;
21777;SDS011;11050;52.222;20.916;2023-07-31T11:39:06;3.45;;;1.48;;
21777;SDS011;11050;52.222;20.916;2023-07-31T11:41:34;2.67;;;1.55;;
21777;SDS011;11050;52.222;20.916;2023-07-31T11:44:00;2.08;;;1.20;;
21777;SDS011;11050;52.222;20.916;2023-07-31T11:46:27;3.25;;;1.80;;
21777;SDS011;11050;52.222;20.916;2023-07-31T11:48:59;1.88;;;1.52;;
21777;SDS011;11050;52.222;20.916;2023-07-31T11:51:26;4.78;;;1.60;;
21777;SDS011;11050;52.222;20.916;2023-07-31T11:53:55;3.42;;;1.50;;
21777;SDS011;11050;52.222;20.916;2023-07-31T11:56:25;2.95;;;1.63;;
21777;SDS011;11050;52.222;20.916;2023-07-31T11:58:59;2.95;;;1.50;;
21777;SDS011;11050;52.222;20.916;2023-07-31T12:01:28;5.85;;;1.73;;
21777;SDS011;11050;52.222;20.916;2023-07-31T12:03:55;3.42;;;1.60;;
21777;SDS011;11050;52.222;20.916;2023-07-31T12:06:29;4.00;;;1.67;;
21777;SDS011;11050;52.222;20.916;2023-07-31T12:09:04;4.40;;;1.85;;
21777;SDS011;11050;52.222;20.916;2023-07-31T12:11:31;4.05;;;1.63;;
21777;SDS011;11050;52.222;20.916;2023-07-31T12:14:19;4.75;;;1.73;;
21777;SDS011;11050;52.222;20.916;2023-07-31T12:16:47;1.98;;;1.45;;
21777;SDS011;11050;52.222;20.916;2023-07-31T12:19:18;2.97;;;1.85;;
21777;SDS011;11050;52.222;20.916;2023-07-31T12:21:44;5.00;;;1.80;;
21777;SDS011;11050;52.222;20.916;2023-07-31T12:24:10;3.20;;;1.77;;
21777;SDS011;11050;52.222;20.916;2023-07-31T12:26:36;3.63;;;1.70;;
21777;SDS011;11050;52.222;20.916;2023-07-31T12:29:01;5.55;;;2.05;;
21777;SDS011;11050;52.222;20.916;2023-07-31T12:31:33;3.10;;;1.80;;
21777;SDS011;11050;52.222;20.916;2023-07-31T12:33:59;2.83;;;1.92;;
21777;SDS011;11050;52.222;20.916;2023-07-31T12:36:26;2.55;;;2.08;;
21777;SDS011;11050;52.222;20.916;2023-07-31T12:38:53;5.47;;;2.08;;
21777;SDS011;11050;52.222;20.916;2023-07-31T12:41:21;8.95;;;2.00;;
21777;SDS011;11050;52.222;20.916;2023-07-31T12:43:47;3.60;;;2.20;;
21777;SDS011;11050;52.222;20.916;2023-07-31T12:46:13;4.13;;;1.70;;
21777;SDS011;11050;52.222;20.916;2023-07-31T12:48:39;3.92;;;1.90;;
21777;SDS011;11050;52.222;20.916;2023-07-31T12:51:06;8.93;;;2.08;;
21777;SDS011;11050;52.222;20.916;2023-07-31T12:53:32;3.10;;;1.85;;
21777;SDS011;11050;52.222;20.916;2023-07-31T12:55:58;4.22;;;1.73;;
21777;SDS011;11050;52.222;20.916;2023-07-31T12:58:24;3.80;;;2.00;;
21777;SDS011;11050;52.222;20.916;2023-07-31T13:00:50;6.07;;;2.38;;
21777;SDS011;11050;52.222;20.916;2023-07-31T13:03:16;7.20;;;2.00;;
21777;SDS011;11050;52.222;20.916;2023-07-31T13:05:42;3.58;;;1.60;;
21777;SDS011;11050;52.222;20.916;2023-07-31T13:08:08;4.75;;;1.77;;
21777;SDS011;11050;52.222;20.916;2023-07-31T13:10:34;5.57;;;1.98;;
21777;SDS011;11050;52.222;20.916;2023-07-31T13:12:59;5.22;;;1.95;;
21777;SDS011;11050;52.222;20.916;2023-07-31T13:15:25;7.35;;;1.95;;
21777;SDS011;11050;52.222;20.916;2023-07-31T13:17:51;3.30;;;1.77;;
21777;SDS011;11050;52.222;20.916;2023-07-31T13:20:17;7.18;;;2.17;;
21777;SDS011;11050;52.222;20.916;2023-07-31T13:22:42;3.63;;;2.05;;
21777;SDS011;11050;52.222;20.916;2023-07-31T13:25:08;8.27;;;1.60;;
21777;SDS011;11050;52.222;20.916;2023-07-31T13:27:34;4.57;;;1.95;;
21777;SDS011;11050;52.222;20.916;2023-07-31T13:30:01;4.47;;;1.80;;
21777;SDS011;11050;52.222;20.916;2023-07-31T13:32:27;4.35;;;1.83;;
21777;SDS011;11050;52.222;20.916;2023-07-31T13:34:53;5.78;;;1.60;;
21777;SDS011;11050;52.222;20.916;2023-07-31T13:37:18;3.90;;;1.70;;
21777;SDS011;11050;52.222;20.916;2023-07-31T13:39:44;7.75;;;2.03;;
21777;SDS011;11050;52.222;20.916;2023-07-31T13:42:10;4.55;;;1.75;;
21777;SDS011;11050;52.222;20.916;2023-07-31T13:44:42;4.32;;;1.63;;
21777;SDS011;11050;52.222;20.916;2023-07-31T13:47:08;4.55;;;1.63;;
21777;SDS011;11050;52.222;20.916;2023-07-31T13:49:35;6.35;;;2.15;;
21777;SDS011;11050;52.222;20.916;2023-07-31T13:52:02;3.42;;;1.48;;
21777;SDS011;11050;52.222;20.916;2023-07-31T13:54:28;4.35;;;1.75;;
21777;SDS011;11050;52.222;20.916;2023-07-31T13:56:54;4.47;;;1.85;;
21777;SDS011;11050;52.222;20.916;2023-07-31T13:59:20;8.88;;;1.70;;
21777;SDS011;11050;52.222;20.916;2023-07-31T14:01:46;4.05;;;1.75;;
21777;SDS011;11050;52.222;20.916;2023-07-31T14:04:13;4.72;;;2.00;;
21777;SDS011;11050;52.222;20.916;2023-07-31T14:06:39;5.25;;;1.77;;
21777;SDS011;11050;52.222;20.916;2023-07-31T14:09:05;4.80;;;1.92;;
21777;SDS011;11050;52.222;20.916;2023-07-31T14:11:31;3.22;;;1.73;;
21777;SDS011;11050;52.222;20.916;2023-07-31T14:13:57;3.90;;;1.85;;
21777;SDS011;11050;52.222;20.916;2023-07-31T14:16:23;2.70;;;1.73;;
21777;SDS011;11050;52.222;20.916;2023-07-31T14:18:49;5.35;;;2.28;;
21777;SDS011;11050;52.222;20.916;2023-07-31T14:21:15;6.38;;;2.20;;
21777;SDS011;11050;52.222;20.916;2023-07-31T14:23:41;6.18;;;2.45;;
21777;SDS011;11050;52.222;20.916;2023-07-31T14:26:07;4.60;;;1.67;;
21777;SDS011;11050;52.222;20.916;2023-07-31T14:28:33;3.78;;;2.08;;
21777;SDS011;11050;52.222;20.916;2023-07-31T14:30:59;5.88;;;1.63;;
21777;SDS011;11050;52.222;20.916;2023-07-31T14:33:24;3.42;;;1.90;;
21777;SDS011;11050;52.222;20.916;2023-07-31T14:35:51;4.25;;;1.90;;
21777;SDS011;11050;52.222;20.916;2023-07-31T14:38:18;5.90;;;2.15;;
21777;SDS011;11050;52.222;20.916;2023-07-31T14:40:44;5.10;;;2.10;;
21777;SDS011;11050;52.222;20.916;2023-07-31T14:43:10;8.02;;;2.25;;
21777;SDS011;11050;52.222;20.916;2023-07-31T14:45:36;4.53;;;2.03;;